Time;durP1;ratioP1;P1;durP2;ratioP2;P2;SDS_P1;SDS_P2;PMS_P1;PMS_P2;Temp;Humidity;BMP_temperature;BMP_pressure;BME280_temperature;BME280_humidity;BME280_pressure;Samples;Min_cycle;Max_cycle;Signal;HPM_P1;HPM_P2
2021/07/03 00:00:25;;;;;;;10.43;9.33;;;15.50;99.90;;;;;;5013663;28;20636;-64
2021/07/03 00:02:51;;;;;;;12.40;11.07;;;15.40;99.90;;;;;;5013714;28;20565;-63
2021/07/03 00:05:16;;;;;;;11.33;10.10;;;15.40;99.90;;;;;;5013755;28;20209;-63
2021/07/03 00:07:42;;;;;;;12.60;11.40;;;15.50;99.90;;;;;;5013733;28;20181;-63
2021/07/03 00:10:08;;;;;;;12.00;10.90;;;15.50;99.90;;;;;;5013398;28;20179;-63
2021/07/03 00:12:34;;;;;;;10.60;9.70;;;15.50;99.90;;;;;;5013566;28;20225;-62
2021/07/03 00:14:59;;;;;;;18.83;10.03;;;15.50;99.90;;;;;;5013524;28;20453;-63
2021/07/03 00:17:25;;;;;;;12.40;11.17;;;15.40;99.90;;;;;;5001563;28;20536;-63
2021/07/03 00:19:51;;;;;;;9.83;9.00;;;15.40;99.90;;;;;;4993601;28;20200;-63
2021/07/03 00:22:17;;;;;;;12.37;9.57;;;15.40;99.90;;;;;;4994186;28;20422;-63
2021/07/03 00:24:42;;;;;;;10.83;9.73;;;15.40;99.90;;;;;;4993726;28;20199;-62
2021/07/03 00:27:08;;;;;;;12.47;11.30;;;15.40;99.90;;;;;;4993296;28;20676;-63
2021/07/03 00:29:33;;;;;;;11.87;10.70;;;15.50;99.90;;;;;;4993388;28;20223;-63
2021/07/03 00:31:59;;;;;;;13.00;10.53;;;15.40;99.90;;;;;;4993624;28;20178;-62
2021/07/03 00:34:24;;;;;;;12.43;10.20;;;15.30;99.90;;;;;;4993496;28;20558;-63
2021/07/03 00:36:50;;;;;;;11.47;10.37;;;15.20;99.90;;;;;;4993763;28;20544;-63
2021/07/03 00:39:15;;;;;;;10.43;9.23;;;15.20;99.90;;;;;;4993291;28;20536;-63
2021/07/03 00:41:41;;;;;;;11.93;10.83;;;15.20;99.90;;;;;;4993496;28;20654;-63
2021/07/03 00:44:06;;;;;;;11.60;10.50;;;15.20;99.90;;;;;;4993762;28;20199;-63
2021/07/03 00:46:32;;;;;;;12.80;11.50;;;15.10;99.90;;;;;;4993899;28;20259;-62
2021/07/03 00:48:58;;;;;;;12.00;10.63;;;15.10;99.90;;;;;;4993884;28;20298;-63
2021/07/03 00:51:23;;;;;;;12.03;10.83;;;15.00;99.90;;;;;;4993949;28;20175;-64
2021/07/03 00:53:50;;;;;;;12.60;11.40;;;15.10;99.90;;;;;;4993511;28;20600;-63
2021/07/03 00:56:15;;;;;;;13.50;12.30;;;15.10;99.90;;;;;;4993649;28;20210;-64
2021/07/03 00:58:41;;;;;;;12.50;11.23;;;15.00;99.90;;;;;;4992999;28;20411;-63
2021/07/03 01:01:06;;;;;;;13.63;12.23;;;15.00;99.90;;;;;;4993514;28;20168;-64
2021/07/03 01:03:32;;;;;;;11.20;10.20;;;14.90;99.90;;;;;;4993282;28;20180;-64
2021/07/03 01:05:58;;;;;;;12.63;11.47;;;14.90;99.90;;;;;;4993503;28;20172;-63
2021/07/03 01:08:23;;;;;;;12.53;11.40;;;14.90;99.90;;;;;;5008407;28;20184;-64
2021/07/03 01:10:49;;;;;;;11.43;10.23;;;14.90;99.90;;;;;;4993136;28;20175;-63
2021/07/03 01:13:14;;;;;;;11.53;10.43;;;14.80;99.90;;;;;;4993076;28;20251;-62
2021/07/03 01:15:40;;;;;;;11.53;10.40;;;14.90;99.90;;;;;;4992748;28;20243;-63
2021/07/03 01:18:06;;;;;;;10.73;9.73;;;14.90;99.90;;;;;;5010245;28;20524;-63
2021/07/03 01:20:31;;;;;;;11.00;9.90;;;14.80;99.90;;;;;;5012141;28;20170;-64
2021/07/03 01:22:57;;;;;;;11.63;10.50;;;14.80;99.90;;;;;;5011210;28;20171;-63
2021/07/03 01:25:23;;;;;;;12.87;10.13;;;14.70;99.90;;;;;;5012347;28;20245;-63
2021/07/03 01:28:04;;;;;;;11.33;10.33;;;14.70;99.90;;;;;;5012366;28;20427;-63
2021/07/03 01:30:31;;;;;;;11.50;10.33;;;14.70;99.90;;;;;;5011865;28;20940;-62
2021/07/03 01:32:57;;;;;;;11.53;10.43;;;14.70;99.90;;;;;;5012337;28;20784;-64
2021/07/03 01:35:25;;;;;;;11.07;9.80;;;14.60;99.90;;;;;;5012103;28;20552;-61
2021/07/03 01:37:51;;;;;;;12.20;11.03;;;14.60;99.90;;;;;;5012300;28;20175;-64
2021/07/03 01:40:16;;;;;;;11.83;10.73;;;14.50;99.90;;;;;;5012073;28;20425;-64
2021/07/03 01:42:42;;;;;;;11.37;9.87;;;14.60;99.90;;;;;;5012239;28;20636;-63
2021/07/03 01:45:08;;;;;;;11.80;10.70;;;14.50;99.90;;;;;;5011969;28;20261;-63
2021/07/03 01:47:44;;;;;;;12.47;11.20;;;14.50;99.90;;;;;;5012171;28;20607;-64
2021/07/03 01:50:10;;;;;;;13.40;11.57;;;14.50;99.90;;;;;;5011896;28;20417;-64
2021/07/03 01:52:37;;;;;;;11.70;10.50;;;14.40;99.90;;;;;;5012199;28;20848;-63
2021/07/03 01:55:11;;;;;;;11.80;10.60;;;14.40;99.90;;;;;;5011848;28;21052;-64
2021/07/03 01:57:37;;;;;;;11.33;10.20;;;14.40;99.90;;;;;;5011893;28;20493;-63
2021/07/03 02:00:10;;;;;;;11.27;10.20;;;14.40;99.90;;;;;;5011778;28;20449;-62
2021/07/03 02:02:36;;;;;;;11.73;10.53;;;14.40;99.90;;;;;;5012050;28;20816;-64
2021/07/03 02:05:03;;;;;;;10.80;9.70;;;14.40;99.90;;;;;;5011889;28;20524;-63
2021/07/03 02:07:29;;;;;;;10.90;9.53;;;14.50;99.90;;;;;;5011941;28;20175;-62
2021/07/03 02:09:55;;;;;;;10.67;9.67;;;14.40;99.90;;;;;;5013827;28;20444;-63
2021/07/03 02:12:20;;;;;;;10.30;9.37;;;14.40;99.90;;;;;;5015813;28;20185;-63
2021/07/03 02:14:46;;;;;;;11.80;10.70;;;14.30;99.90;;;;;;5015736;28;20566;-63
2021/07/03 02:17:11;;;;;;;11.40;9.50;;;14.30;99.90;;;;;;5005631;28;20648;-63
2021/07/03 02:19:37;;;;;;;13.57;10.30;;;14.40;99.90;;;;;;4995872;28;20645;-63
2021/07/03 02:22:02;;;;;;;11.67;9.60;;;14.30;99.90;;;;;;4996141;28;20262;-64
2021/07/03 02:24:29;;;;;;;11.33;9.20;;;14.30;99.90;;;;;;4994642;28;20204;-63
2021/07/03 02:26:54;;;;;;;10.20;9.30;;;14.30;99.90;;;;;;4996146;28;20168;-63
2021/07/03 02:29:20;;;;;;;12.03;10.00;;;14.20;99.90;;;;;;4994474;28;20433;-64
2021/07/03 02:31:45;;;;;;;10.70;9.60;;;14.30;99.90;;;;;;4996041;28;20186;-63
2021/07/03 02:34:11;;;;;;;12.30;11.03;;;14.30;99.90;;;;;;4995853;28;20191;-64
2021/07/03 02:36:36;;;;;;;11.30;10.10;;;14.40;99.90;;;;;;4995697;28;20203;-64
2021/07/03 02:39:03;;;;;;;11.10;10.00;;;14.30;99.90;;;;;;4995438;28;20187;-62
2021/07/03 02:41:28;;;;;;;11.53;10.43;;;14.20;99.90;;;;;;4995692;28;20178;-63
2021/07/03 02:43:54;;;;;;;11.80;10.70;;;14.10;99.90;;;;;;4995587;28;20434;-64
2021/07/03 02:46:20;;;;;;;12.70;11.40;;;14.10;99.90;;;;;;4995709;28;20199;-63
2021/07/03 02:48:45;;;;;;;11.20;10.17;;;14.00;99.90;;;;;;4995276;28;20182;-63
2021/07/03 02:51:11;;;;;;;12.17;10.97;;;14.00;99.90;;;;;;4995626;28;20168;-63
2021/07/03 02:53:36;;;;;;;11.43;10.33;;;14.00;99.90;;;;;;4995238;28;20179;-64
2021/07/03 02:56:02;;;;;;;12.60;10.47;;;14.00;99.90;;;;;;4995394;28;20203;-63
2021/07/03 02:58:28;;;;;;;11.13;10.03;;;14.00;99.90;;;;;;4995158;28;20172;-63
2021/07/03 03:00:54;;;;;;;11.70;10.50;;;14.10;99.90;;;;;;4995431;28;20709;-62
2021/07/03 03:03:19;;;;;;;11.33;10.10;;;14.10;99.90;;;;;;4995341;28;20450;-63
2021/07/03 03:05:45;;;;;;;11.60;10.43;;;14.00;99.90;;;;;;4995178;28;20196;-64
2021/07/03 03:08:10;;;;;;;14.63;10.40;;;14.00;99.90;;;;;;4995151;28;20216;-62
2021/07/03 03:10:36;;;;;;;13.20;11.80;;;14.00;99.90;;;;;;4994958;28;20190;-63
2021/07/03 03:13:01;;;;;;;11.37;10.17;;;14.00;99.90;;;;;;4995105;28;20183;-63
2021/07/03 03:15:27;;;;;;;10.83;9.73;;;14.00;99.90;;;;;;4995008;28;20207;-63
2021/07/03 03:17:52;;;;;;;13.47;11.63;;;14.00;99.90;;;;;;5010628;28;20598;-63
2021/07/03 03:20:18;;;;;;;13.70;12.30;;;14.00;99.90;;;;;;5013903;28;20250;-63
2021/07/03 03:22:44;;;;;;;12.37;11.07;;;14.00;99.90;;;;;;5014556;28;20175;-63
2021/07/03 03:25:10;;;;;;;13.00;11.00;;;14.00;99.90;;;;;;5014444;28;20195;-64
2021/07/03 03:27:35;;;;;;;12.80;11.47;;;14.00;99.90;;;;;;5014433;28;20270;-64
2021/07/03 03:30:01;;;;;;;11.57;10.43;;;14.00;99.90;;;;;;5012926;28;20449;-63
2021/07/03 03:32:26;;;;;;;12.20;10.93;;;14.10;99.90;;;;;;5014402;28;20213;-63
2021/07/03 03:34:52;;;;;;;13.90;11.17;;;14.10;99.90;;;;;;5014308;28;20241;-63
2021/07/03 03:37:17;;;;;;;13.60;12.20;;;14.10;99.90;;;;;;5014783;28;20175;-63
2021/07/03 03:39:43;;;;;;;11.87;10.77;;;14.10;99.90;;;;;;5013938;28;20763;-64
2021/07/03 03:42:09;;;;;;;14.53;12.73;;;14.00;99.90;;;;;;5014182;28;20175;-63
2021/07/03 03:44:34;;;;;;;12.93;11.60;;;14.00;99.90;;;;;;5014170;28;20191;-63
2021/07/03 03:47:00;;;;;;;13.43;12.03;;;14.10;99.90;;;;;;5014116;28;20254;-63
2021/07/03 03:49:25;;;;;;;12.63;11.37;;;14.10;99.90;;;;;;5013856;28;20584;-63
2021/07/03 03:51:51;;;;;;;11.80;10.60;;;14.10;99.90;;;;;;5014042;28;20171;-63
2021/07/03 03:54:17;;;;;;;12.20;11.00;;;14.10;99.90;;;;;;5038584;22;20222;-67
2021/07/03 03:56:43;;;;;;;10.80;9.70;;;14.20;99.90;;;;;;5013737;28;20640;-65
2021/07/03 03:59:11;;;;;;;11.30;10.30;;;14.20;99.90;;;;;;5013416;28;20501;-66
2021/07/03 04:01:36;;;;;;;12.87;10.97;;;14.20;99.90;;;;;;5013877;28;20200;-65
2021/07/03 04:04:03;;;;;;;12.70;11.47;;;14.30;99.90;;;;;;5013833;28;20838;-65
2021/07/03 04:06:29;;;;;;;12.90;11.50;;;14.40;99.90;;;;;;5013775;28;20179;-65
2021/07/03 04:08:54;;;;;;;12.27;11.07;;;14.50;99.90;;;;;;5013302;28;20944;-65
2021/07/03 04:11:20;;;;;;;12.40;10.20;;;14.50;99.90;;;;;;5013970;28;20167;-65
2021/07/03 04:13:45;;;;;;;11.10;9.90;;;14.40;99.90;;;;;;5013638;28;20171;-65
2021/07/03 04:16:11;;;;;;;9.90;9.00;;;14.40;99.90;;;;;;5013277;28;20197;-65
2021/07/03 04:18:36;;;;;;;12.27;11.10;;;14.40;99.90;;;;;;5013263;28;20257;-66
2021/07/03 04:21:02;;;;;;;11.90;10.80;;;14.50;99.90;;;;;;5013147;28;20179;-65
2021/07/03 04:23:27;;;;;;;11.10;10.07;;;14.60;99.90;;;;;;5013418;28;20194;-64
2021/07/03 04:25:53;;;;;;;11.57;10.37;;;14.80;99.90;;;;;;5013539;28;20210;-65
2021/07/03 04:28:18;;;;;;;12.50;11.30;;;14.90;99.90;;;;;;5013182;28;20619;-65
2021/07/03 04:30:44;;;;;;;12.57;11.30;;;15.00;99.90;;;;;;5013118;28;20171;-65
2021/07/03 04:33:10;;;;;;;13.70;11.37;;;15.20;99.90;;;;;;5012575;28;20179;-65
2021/07/03 04:35:35;;;;;;;10.90;9.80;;;15.20;99.90;;;;;;5013122;28;20236;-66
2021/07/03 04:38:01;;;;;;;11.67;10.57;;;15.30;99.90;;;;;;5012928;28;20653;-65
2021/07/03 04:40:27;;;;;;;10.10;9.00;;;15.50;99.90;;;;;;5013248;28;20263;-65
2021/07/03 04:42:52;;;;;;;12.10;10.90;;;15.60;99.90;;;;;;5013075;28;20640;-66
2021/07/03 04:45:18;;;;;;;11.80;10.60;;;15.70;99.90;;;;;;5012937;28;20203;-65
2021/07/03 04:47:43;;;;;;;12.53;11.23;;;15.60;99.90;;;;;;5013064;28;20163;-65
2021/07/03 04:50:09;;;;;;;11.53;10.40;;;15.70;99.90;;;;;;5012646;28;20167;-66
2021/07/03 04:52:36;;;;;;;12.10;10.50;;;15.70;99.90;;;;;;5012911;28;20171;-66
2021/07/03 04:55:03;;;;;;;10.47;9.47;;;15.90;99.90;;;;;;5012842;28;20984;-65
2021/07/03 04:57:28;;;;;;;11.17;10.07;;;16.10;99.90;;;;;;5012356;28;20444;-65
2021/07/03 04:59:54;;;;;;;11.23;10.13;;;16.30;99.90;;;;;;5012574;28;20426;-66
2021/07/03 05:02:19;;;;;;;11.07;9.97;;;16.40;99.90;;;;;;5012863;28;20181;-65
2021/07/03 05:04:46;;;;;;;10.07;9.17;;;16.50;99.90;;;;;;5012560;28;20579;-66
2021/07/03 05:07:12;;;;;;;9.63;8.80;;;16.60;99.90;;;;;;5012660;28;20174;-66
2021/07/03 05:09:38;;;;;;;11.93;10.33;;;16.80;99.90;;;;;;5012386;28;20414;-65
2021/07/03 05:12:04;;;;;;;11.67;10.57;;;16.90;99.90;;;;;;5012834;28;20205;-66
2021/07/03 05:14:29;;;;;;;11.93;9.87;;;17.00;99.90;;;;;;5011284;28;20190;-66
2021/07/03 05:16:55;;;;;;;10.60;9.63;;;17.20;99.90;;;;;;5020397;28;20511;-65
2021/07/03 05:19:21;;;;;;;11.30;10.20;;;17.30;99.90;;;;;;5031890;28;20553;-66
2021/07/03 05:21:46;;;;;;;11.87;10.77;;;17.40;99.90;;;;;;5032183;28;20181;-65
2021/07/03 05:24:12;;;;;;;10.37;9.33;;;17.50;99.90;;;;;;5032298;28;20440;-66
2021/07/03 05:26:38;;;;;;;11.60;10.40;;;17.40;99.90;;;;;;5032153;28;20240;-65
2021/07/03 05:29:04;;;;;;;11.50;9.70;;;17.20;99.90;;;;;;5031695;28;20624;-65
2021/07/03 05:31:30;;;;;;;10.77;9.77;;;17.20;99.90;;;;;;5032174;28;20398;-65
2021/07/03 05:33:56;;;;;;;11.13;9.53;;;17.20;99.90;;;;;;5031914;28;20421;-66
2021/07/03 05:36:22;;;;;;;11.43;10.33;;;17.30;99.90;;;;;;5031973;28;20253;-65
2021/07/03 05:38:47;;;;;;;10.73;9.83;;;17.40;99.90;;;;;;5031689;28;20610;-67
2021/07/03 05:41:15;;;;;;;11.30;9.47;;;17.60;99.90;;;;;;5031994;28;20181;-66
2021/07/03 05:43:41;;;;;;;10.90;9.50;;;18.00;99.90;;;;;;5031584;28;20365;-66
2021/07/03 05:46:07;;;;;;;14.27;9.23;;;18.20;99.90;;;;;;5031806;28;20584;-66
2021/07/03 05:48:34;;;;;;;10.77;9.60;;;18.50;99.90;;;;;;5031660;28;20174;-66
2021/07/03 05:51:00;;;;;;;9.40;8.60;;;18.70;99.90;;;;;;5031828;28;20416;-65
2021/07/03 05:53:25;;;;;;;11.27;10.17;;;18.90;99.90;;;;;;5031977;28;20909;-65
2021/07/03 05:55:51;;;;;;;10.43;9.57;;;19.00;99.90;;;;;;5031697;28;20487;-66
2021/07/03 05:58:17;;;;;;;10.37;9.37;;;19.00;99.90;;;;;;5031597;28;20205;-66
2021/07/03 06:00:42;;;;;;;11.03;10.03;;;18.90;99.90;;;;;;5031714;28;20606;-65
2021/07/03 06:03:08;;;;;;;10.33;9.43;;;18.80;99.90;;;;;;5030460;28;20208;-66
2021/07/03 06:05:33;;;;;;;9.33;8.63;;;18.80;99.90;;;;;;5030416;28;20242;-67
2021/07/03 06:07:59;;;;;;;9.77;8.87;;;19.00;99.90;;;;;;5012069;28;20210;-67
2021/07/03 06:10:24;;;;;;;9.03;8.23;;;19.20;99.90;;;;;;5011769;28;20171;-67
2021/07/03 06:12:50;;;;;;;10.10;9.23;;;19.60;99.90;;;;;;5011939;28;20206;-66
2021/07/03 06:15:16;;;;;;;10.03;9.23;;;19.80;99.90;;;;;;5012274;28;20191;-66
2021/07/03 06:17:42;;;;;;;9.47;8.47;;;20.00;99.90;;;;;;5026095;28;20178;-67
2021/07/03 06:20:11;;;;;;;9.93;7.83;;;20.00;99.90;;;;;;5031277;28;20175;-67
2021/07/03 06:22:38;;;;;;;9.03;8.33;;;20.10;99.90;;;;;;5031553;28;20421;-67
2021/07/03 06:25:05;;;;;;;9.57;8.60;;;20.30;99.90;;;;;;5029312;28;20980;-67
2021/07/03 06:27:32;;;;;;;9.73;8.93;;;20.70;99.90;;;;;;5011812;28;20741;-67
2021/07/03 06:29:57;;;;;;;9.57;8.70;;;20.80;99.90;;;;;;5011568;28;20413;-67
2021/07/03 06:32:23;;;;;;;9.00;8.37;;;20.90;99.90;;;;;;5011649;28;20516;-67
2021/07/03 06:34:48;;;;;;;8.77;8.07;;;20.70;99.90;;;;;;5026865;28;20206;-67
2021/07/03 06:37:14;;;;;;;9.90;9.00;;;20.90;99.90;;;;;;5011894;28;20178;-67
2021/07/03 06:39:42;;;;;;;8.47;7.77;;;21.20;99.90;;;;;;5026616;28;20636;-67
2021/07/03 06:42:08;;;;;;;9.70;8.70;;;21.60;99.90;;;;;;5011656;28;20428;-67
2021/07/03 06:44:34;;;;;;;9.30;8.50;;;21.40;99.90;;;;;;5011121;28;20461;-66
2021/07/03 06:46:59;;;;;;;9.00;8.20;;;21.30;99.90;;;;;;5011098;28;20465;-67
2021/07/03 06:49:25;;;;;;;9.00;8.30;;;21.50;99.90;;;;;;5011211;28;20590;-66
2021/07/03 06:51:51;;;;;;;7.90;7.20;;;21.80;99.90;;;;;;5011225;28;20253;-66
2021/07/03 06:54:16;;;;;;;8.73;7.93;;;21.80;99.90;;;;;;5011009;28;20205;-67
2021/07/03 06:56:42;;;;;;;8.50;7.80;;;21.80;99.90;;;;;;5014638;28;20609;-67
2021/07/03 06:59:07;;;;;;;7.97;7.37;;;21.80;99.90;;;;;;5014761;28;20558;-67
2021/07/03 07:01:33;;;;;;;7.70;6.97;;;21.80;99.90;;;;;;5014866;28;20574;-67
2021/07/03 07:03:58;;;;;;;8.93;8.13;;;21.90;99.90;;;;;;5014710;28;20266;-67
2021/07/03 07:06:24;;;;;;;8.57;7.67;;;22.20;99.90;;;;;;5014503;28;20211;-67
2021/07/03 07:08:50;;;;;;;7.83;7.20;;;22.50;99.90;;;;;;5014305;28;20278;-67
2021/07/03 07:11:15;;;;;;;10.73;6.53;;;22.80;99.90;;;;;;5014495;28;20198;-67
2021/07/03 07:13:41;;;;;;;8.97;8.13;;;22.60;99.90;;;;;;5014638;28;20632;-67
2021/07/03 07:16:07;;;;;;;8.47;7.77;;;22.40;99.90;;;;;;5015919;28;20190;-66
2021/07/03 07:18:32;;;;;;;8.40;7.70;;;22.60;99.90;;;;;;5017046;28;20690;-65
2021/07/03 07:20:58;;;;;;;7.83;7.23;;;22.80;99.90;;;;;;5014533;28;20175;-66
2021/07/03 07:23:23;;;;;;;8.87;8.10;;;23.10;99.90;;;;;;5014385;28;20599;-65
2021/07/03 07:25:50;;;;;;;8.10;7.50;;;23.10;99.90;;;;;;5013559;28;20702;-66
2021/07/03 07:28:17;;;;;;;7.97;7.33;;;23.10;99.90;;;;;;5013699;28;20167;-65
2021/07/03 07:30:42;;;;;;;9.93;7.20;;;23.30;99.90;;;;;;4999033;28;20462;-67
2021/07/03 07:33:08;;;;;;;8.20;7.50;;;23.30;99.90;;;;;;4994900;28;20450;-65
2021/07/03 07:35:34;;;;;;;7.67;6.97;;;23.30;99.90;;;;;;4994740;28;20218;-65
2021/07/03 07:37:59;;;;;;;7.93;7.33;;;23.30;99.90;;;;;;4995752;28;20883;-65
2021/07/03 07:40:25;;;;;;;7.63;7.03;;;23.40;99.90;;;;;;5014041;28;20697;-65
2021/07/03 07:42:50;;;;;;;8.83;8.03;;;23.50;99.90;;;;;;5014232;28;20198;-66
2021/07/03 07:45:16;;;;;;;7.17;6.57;;;23.60;99.90;;;;;;5014032;28;20305;-64
2021/07/03 07:47:42;;;;;;;8.17;7.43;;;23.70;99.90;;;;;;5014234;28;20290;-66
2021/07/03 07:50:08;;;;;;;8.93;8.13;;;23.30;99.90;;;;;;5013885;28;20309;-63
2021/07/03 07:52:34;;;;;;;9.30;8.40;;;23.10;99.90;;;;;;5014067;28;20191;-64
2021/07/03 07:55:00;;;;;;;9.43;8.53;;;23.40;99.90;;;;;;5013444;28;20457;-64
2021/07/03 07:57:26;;;;;;;7.83;7.13;;;23.60;99.90;;;;;;5013711;28;20438;-64
2021/07/03 07:59:52;;;;;;;9.23;8.43;;;23.50;99.90;;;;;;5013556;28;20505;-64
2021/07/03 08:02:17;;;;;;;7.77;7.17;;;23.70;99.90;;;;;;5013732;28;20418;-64
2021/07/03 08:04:43;;;;;;;8.40;7.70;;;23.60;99.90;;;;;;5013624;28;20199;-65
2021/07/03 08:07:08;;;;;;;8.20;7.53;;;24.00;99.90;;;;;;5013783;28;20174;-65
2021/07/03 08:09:34;;;;;;;7.90;7.30;;;24.10;99.90;;;;;;5013525;28;20166;-64
2021/07/03 08:11:59;;;;;;;6.77;6.27;;;24.10;99.90;;;;;;5013542;28;20167;-66
2021/07/03 08:14:25;;;;;;;8.03;7.33;;;24.20;99.90;;;;;;5013091;28;20199;-65
2021/07/03 08:16:51;;;;;;;8.73;7.13;;;24.40;99.90;;;;;;5020765;28;20615;-64
2021/07/03 08:19:17;;;;;;;8.53;7.80;;;24.70;99.90;;;;;;5033154;28;20232;-65
2021/07/03 08:21:44;;;;;;;8.97;7.60;;;24.50;99.90;;;;;;5002577;28;20191;-66
2021/07/03 08:24:10;;;;;;;8.10;7.47;;;24.80;99.90;;;;;;4993980;28;20434;-65
2021/07/03 08:26:35;;;;;;;8.40;7.70;;;25.30;99.50;;;;;;4993762;28;20823;-66
2021/07/03 08:29:01;;;;;;;11.03;9.97;;;25.60;98.10;;;;;;4993370;28;20194;-64
2021/07/03 08:31:27;;;;;;;7.87;7.17;;;25.40;98.30;;;;;;4993795;28;20176;-64
2021/07/03 08:33:53;;;;;;;7.90;7.20;;;25.40;97.80;;;;;;4993672;28;20421;-65
2021/07/03 08:36:18;;;;;;;7.13;6.60;;;25.40;97.60;;;;;;4993874;28;20179;-66
2021/07/03 08:38:44;;;;;;;7.93;7.33;;;25.60;97.50;;;;;;4993319;28;20200;-65
2021/07/03 08:41:11;;;;;;;8.40;7.80;;;25.60;97.40;;;;;;4993599;28;20175;-65
2021/07/03 08:43:47;;;;;;;9.03;7.90;;;25.50;97.50;;;;;;4993419;28;20167;-65
2021/07/03 08:46:16;;;;;;;8.57;7.90;;;25.40;97.60;;;;;;4993390;28;20462;-65
2021/07/03 08:48:42;;;;;;;7.57;6.97;;;25.70;97.10;;;;;;4993173;28;20411;-66
2021/07/03 08:51:07;;;;;;;8.47;7.77;;;26.20;96.70;;;;;;4993410;28;20421;-65
2021/07/03 08:53:33;;;;;;;7.00;6.50;;;26.60;95.90;;;;;;4993366;28;20279;-65
2021/07/03 08:55:59;;;;;;;7.60;6.90;;;26.80;93.70;;;;;;4998012;28;20211;-65
2021/07/03 08:58:24;;;;;;;6.47;5.93;;;26.90;93.50;;;;;;5019367;28;20170;-65
2021/07/03 09:00:50;;;;;;;6.53;6.03;;;27.10;93.30;;;;;;5032556;28;20448;-66
2021/07/03 09:03:25;;;;;;;8.30;7.30;;;27.40;91.00;;;;;;5018697;28;20194;-65
2021/07/03 09:05:59;;;;;;;7.30;6.70;;;27.60;90.90;;;;;;5012570;28;20559;-66
2021/07/03 09:08:28;;;;;;;7.17;6.67;;;27.70;92.00;;;;;;5012340;28;20922;-66
2021/07/03 09:11:04;;;;;;;8.37;7.67;;;27.20;90.90;;;;;;5012595;28;20429;-65
2021/07/03 09:13:31;;;;;;;8.10;7.30;;;27.20;91.20;;;;;;5012520;28;20867;-65
2021/07/03 09:15:56;;;;;;;7.80;6.93;;;26.80;91.20;;;;;;5012546;28;20445;-65
2021/07/03 09:18:22;;;;;;;6.67;6.13;;;26.80;91.00;;;;;;5011902;28;20433;-65
2021/07/03 09:20:48;;;;;;;8.60;7.00;;;26.90;90.40;;;;;;5012565;28;20171;-66
2021/07/03 09:23:19;;;;;;;7.83;7.33;;;27.30;88.10;;;;;;5012377;28;20671;-65
2021/07/03 09:25:51;;;;;;;7.57;7.00;;;26.90;85.40;;;;;;5012335;28;20289;-65
2021/07/03 09:28:22;;;;;;;6.97;6.27;;;27.20;88.50;;;;;;5012300;28;20414;-66
2021/07/03 09:30:53;;;;;;;7.93;7.13;;;27.80;86.80;;;;;;5012486;28;20422;-65
2021/07/03 09:33:24;;;;;;;6.90;6.20;;;28.30;86.50;;;;;;5012515;28;20492;-65
2021/07/03 09:36:29;;;;;;;6.60;6.10;;;28.20;82.40;;;;;;5012361;28;20441;-65
2021/07/03 09:38:56;;;;;;;7.33;6.63;;;28.30;82.80;;;;;;4991118;28;20841;-65
2021/07/03 09:41:30;;;;;;;8.50;7.70;;;28.50;82.80;;;;;;4992710;28;20485;-65
2021/07/03 09:44:08;;;;;;;8.30;7.50;;;28.30;83.60;;;;;;4991247;28;20429;-65
2021/07/03 09:46:34;;;;;;;7.63;7.03;;;28.40;84.50;;;;;;4992641;28;20892;-65
2021/07/03 09:49:07;;;;;;;7.30;6.60;;;28.20;80.10;;;;;;4992345;28;20498;-65
2021/07/03 09:51:36;;;;;;;8.00;6.00;;;28.40;80.00;;;;;;4992772;28;20175;-65
2021/07/03 09:54:04;;;;;;;7.20;6.60;;;29.10;76.90;;;;;;4992301;28;20422;-64
2021/07/03 09:56:29;;;;;;;7.37;6.67;;;29.70;76.40;;;;;;5032960;23;20584;-64
2021/07/03 09:58:55;;;;;;;8.43;7.80;;;30.50;73.00;;;;;;5011242;28;20868;-64
2021/07/03 10:01:21;;;;;;;8.50;7.60;;;30.00;72.10;;;;;;5012142;28;20171;-64
2021/07/03 10:03:47;;;;;;;8.87;6.87;;;30.10;73.80;;;;;;5012122;28;20505;-64
2021/07/03 10:06:27;;;;;;;8.90;7.67;;;30.90;72.40;;;;;;5011864;28;20469;-64
2021/07/03 10:08:57;;;;;;;7.60;6.90;;;31.70;72.90;;;;;;5011686;28;20418;-65
2021/07/03 10:11:25;;;;;;;7.57;6.97;;;32.10;68.00;;;;;;5011957;28;20860;-64
2021/07/03 10:14:02;;;;;;;7.33;6.60;;;30.90;68.80;;;;;;5011913;28;20956;-65
2021/07/03 10:16:28;;;;;;;8.90;6.53;;;31.50;68.50;;;;;;4994283;28;20441;-64
2021/07/03 10:19:10;;;;;;;6.87;6.27;;;32.10;66.50;;;;;;5011701;28;20453;-62
2021/07/03 10:21:36;;;;;;;7.00;6.40;;;32.50;64.10;;;;;;5011751;28;20922;-62
2021/07/03 10:24:02;;;;;;;6.80;6.20;;;33.90;60.80;;;;;;5011905;28;20418;-63
2021/07/03 10:26:38;;;;;;;6.77;6.27;;;34.70;59.70;;;;;;5011726;28;20453;-63
2021/07/03 10:29:15;;;;;;;7.23;6.70;;;35.30;55.70;;;;;;5011525;28;20956;-62
2021/07/03 10:31:41;;;;;;;6.47;5.87;;;35.20;54.30;;;;;;5015308;28;20417;-63
2021/07/03 10:34:07;;;;;;;5.87;5.47;;;35.30;52.70;;;;;;5015491;28;20497;-62
2021/07/03 10:36:32;;;;;;;7.20;6.80;;;36.10;51.40;;;;;;5015303;28;20198;-63
2021/07/03 10:39:00;;;;;;;7.63;7.13;;;36.50;50.80;;;;;;4997640;28;20182;-63
2021/07/03 10:41:28;;;;;;;7.57;7.07;;;37.20;49.10;;;;;;5015506;28;20171;-63
2021/07/03 10:44:07;;;;;;;7.07;6.47;;;35.30;49.20;;;;;;5015429;28;20768;-63
2021/07/03 10:46:35;;;;;;;7.20;6.50;;;34.10;50.40;;;;;;5015188;28;20585;-63
2021/07/03 10:49:16;;;;;;;7.20;6.60;;;34.70;49.20;;;;;;5015111;28;20923;-62
2021/07/03 10:51:49;;;;;;;6.20;5.80;;;35.90;49.10;;;;;;5015201;28;20788;-63
2021/07/03 10:54:27;;;;;;;7.30;6.80;;;37.90;47.00;;;;;;5015336;28;20425;-62
2021/07/03 10:57:01;;;;;;;5.90;5.43;;;38.90;44.70;;;;;;5015176;28;20437;-63
2021/07/03 10:59:29;;;;;;;5.60;5.10;;;40.00;42.90;;;;;;5014885;28;20413;-63
2021/07/03 11:02:30;;;;;;;6.10;5.60;;;40.80;42.40;;;;;;5015131;28;20422;-63
2021/07/03 11:05:00;;;;;;;6.00;5.70;;;41.00;39.50;;;;;;4983235;28;20925;-63
2021/07/03 11:07:30;;;;;;;5.87;5.47;;;41.40;39.60;;;;;;5014849;28;20426;-63
2021/07/03 11:10:08;;;;;;;5.90;5.50;;;40.00;38.60;;;;;;4997139;28;20817;-63
2021/07/03 11:12:44;;;;;;;5.70;5.40;;;41.00;39.20;;;;;;5014703;28;20500;-63
2021/07/03 11:15:11;;;;;;;5.40;5.10;;;41.60;38.20;;;;;;5014706;28;20449;-63
2021/07/03 11:17:37;;;;;;;6.57;5.97;;;41.00;36.80;;;;;;5014836;28;20422;-62
2021/07/03 11:20:03;;;;;;;5.97;5.67;;;41.50;38.30;;;;;;5014817;28;20428;-62
2021/07/03 11:22:28;;;;;;;5.80;5.40;;;41.90;36.10;;;;;;5014937;28;20171;-63
2021/07/03 11:25:00;;;;;;;6.13;5.63;;;43.20;35.80;;;;;;5014519;28;20187;-62
2021/07/03 11:27:26;;;;;;;6.00;5.70;;;43.50;35.60;;;;;;5014638;28;20167;-63
2021/07/03 11:29:52;;;;;;;5.60;5.20;;;43.10;35.10;;;;;;5014271;28;20421;-63
2021/07/03 11:32:18;;;;;;;8.60;8.00;;;43.30;34.50;;;;;;5014457;28;20907;-63
2021/07/03 11:34:55;;;;;;;7.77;7.00;;;44.30;35.00;;;;;;5014401;28;20434;-62
2021/07/03 11:37:31;;;;;;;6.47;6.07;;;44.30;33.90;;;;;;5014492;28;20178;-62
2021/07/03 11:39:58;;;;;;;5.23;4.93;;;44.30;33.60;;;;;;5014097;28;20409;-63
2021/07/03 11:42:44;;;;;;;6.30;5.90;;;44.90;33.10;;;;;;5013759;28;20426;-62
2021/07/03 11:45:13;;;;;;;6.20;5.90;;;44.90;32.60;;;;;;5014032;28;20863;-62
2021/07/03 11:47:47;;;;;;;11.03;10.33;;;45.60;31.70;;;;;;5014215;28;20446;-62
2021/07/03 11:50:30;;;;;;;5.27;4.97;;;46.60;31.40;;;;;;5013713;28;20418;-63
2021/07/03 11:52:57;;;;;;;5.20;4.90;;;46.90;30.70;;;;;;5014188;28;20942;-63
2021/07/03 11:55:32;;;;;;;5.30;5.00;;;47.20;30.30;;;;;;5013658;28;20479;-62
2021/07/03 11:57:59;;;;;;;5.70;5.27;;;47.70;30.00;;;;;;5013958;28;20992;-63
2021/07/03 12:00:28;;;;;;;6.63;6.13;;;47.40;30.00;;;;;;5013739;28;20811;-63
2021/07/03 12:02:56;;;;;;;6.20;5.80;;;46.80;29.80;;;;;;5013859;28;20914;-63
2021/07/03 12:05:32;;;;;;;5.53;5.23;;;44.40;30.70;;;;;;5014093;28;20442;-63
2021/07/03 12:08:03;;;;;;;5.40;5.10;;;42.80;32.20;;;;;;5013647;28;21001;-63
2021/07/03 12:10:34;;;;;;;5.40;5.10;;;42.30;31.30;;;;;;5013584;28;20497;-62
2021/07/03 12:13:00;;;;;;;5.23;4.90;;;40.50;32.60;;;;;;5013669;28;20545;-62
2021/07/03 12:15:26;;;;;;;5.10;4.70;;;39.00;32.80;;;;;;5013584;28;20485;-62
2021/07/03 12:17:52;;;;;;;6.10;5.70;;;38.80;34.00;;;;;;5013676;28;20186;-63
2021/07/03 12:20:19;;;;;;;7.00;5.83;;;39.10;34.80;;;;;;5013171;28;20417;-63
2021/07/03 12:22:56;;;;;;;5.00;4.70;;;39.80;34.20;;;;;;5013535;28;20190;-63
2021/07/03 12:25:22;;;;;;;6.00;5.50;;;40.60;34.00;;;;;;5013611;28;20438;-63
2021/07/03 12:28:05;;;;;;;5.57;5.27;;;40.70;33.60;;;;;;5013652;28;20418;-64
2021/07/03 12:30:33;;;;;;;5.67;5.13;;;42.50;33.00;;;;;;5013241;28;20424;-62
2021/07/03 12:33:08;;;;;;;6.00;5.53;;;41.60;32.70;;;;;;5013243;28;20911;-62
2021/07/03 12:35:52;;;;;;;5.17;4.87;;;42.60;32.50;;;;;;5013118;28;20461;-62
2021/07/03 12:38:26;;;;;;;5.07;4.77;;;44.10;30.60;;;;;;5013068;28;20950;-62